JBU492 KLAX-KSFO
Flight info
| Callsign | JBU492 |
|---|---|
| Flight time | 0h 49m |
| Altitude | 31000 |
| Route | SUMMR2 STOKD DCT SERFR SERFR4 |
| Aircraft | A321/M-SDE3FGHIRWY/LB1 |
Departure
| Time | 2026-04-21 08:56 |
|---|---|
| Airport | Los Angeles International Airport (KLAX) |
Arrival
| Time | 2026-04-21 09:45 |
|---|---|
| Airport | San Francisco International Airport (KSFO) |
| Time | Latitude | Longitude | Altitude | Speed | Heading |
|---|---|---|---|---|---|
| 2026-04-21 08:23 | 33.94158 | -118.40029 | 126 ft | 0 kts | 96° |
| 2026-04-21 08:47 | 33.94158 | -118.40033 | 126 ft | 2 kts | 96° |
| 2026-04-21 08:47 | 33.94159 | -118.40050 | 122 ft | 3 kts | 96° |
| 2026-04-21 08:47 | 33.94164 | -118.40072 | 124 ft | 3 kts | 126° |
| 2026-04-21 08:48 | 33.94177 | -118.40087 | 122 ft | 3 kts | 160° |
| 2026-04-21 08:48 | 33.94193 | -118.40092 | 123 ft | 1 kts | 173° |
| 2026-04-21 08:48 | 33.94199 | -118.40093 | 123 ft | 0 kts | 173° |
| 2026-04-21 08:50 | 33.94198 | -118.40093 | 123 ft | 0 kts | 173° |
| 2026-04-21 08:50 | 33.94179 | -118.40090 | 122 ft | 4 kts | 173° |
| 2026-04-21 08:51 | 33.94142 | -118.40084 | 122 ft | 7 kts | 173° |
| 2026-04-21 08:51 | 33.94086 | -118.40076 | 121 ft | 9 kts | 173° |
| 2026-04-21 08:51 | 33.94018 | -118.40066 | 123 ft | 11 kts | 173° |
| 2026-04-21 08:51 | 33.93937 | -118.40053 | 123 ft | 13 kts | 168° |
| 2026-04-21 08:52 | 33.93882 | -118.39981 | 121 ft | 13 kts | 95° |
| 2026-04-21 08:52 | 33.93893 | -118.39855 | 126 ft | 18 kts | 83° |
| 2026-04-21 08:52 | 33.93909 | -118.39698 | 126 ft | 20 kts | 83° |
| 2026-04-21 08:52 | 33.93926 | -118.39528 | 121 ft | 21 kts | 83° |
| 2026-04-21 08:53 | 33.93945 | -118.39348 | 124 ft | 22 kts | 82° |
| 2026-04-21 08:53 | 33.93964 | -118.39160 | 126 ft | 23 kts | 83° |
| 2026-04-21 08:53 | 33.93984 | -118.38964 | 124 ft | 24 kts | 83° |
| 2026-04-21 08:53 | 33.94005 | -118.38762 | 126 ft | 25 kts | 83° |
| 2026-04-21 08:54 | 33.94027 | -118.38551 | 122 ft | 26 kts | 83° |
| 2026-04-21 08:54 | 33.94049 | -118.38333 | 126 ft | 27 kts | 83° |
| 2026-04-21 08:54 | 33.94071 | -118.38110 | 123 ft | 27 kts | 83° |
| 2026-04-21 08:54 | 33.94077 | -118.38033 | 126 ft | 3 kts | 95° |
| 2026-04-21 08:55 | 33.94047 | -118.38002 | 126 ft | 10 kts | 160° |
| 2026-04-21 08:55 | 33.93984 | -118.38038 | 123 ft | 11 kts | 256° |
| 2026-04-21 08:55 | 33.93979 | -118.38082 | 126 ft | 0 kts | 263° |
| 2026-04-21 08:55 | 33.93966 | -118.38210 | 122 ft | 51 kts | 263° |
| 2026-04-21 08:56 | 33.93890 | -118.38936 | 126 ft | 121 kts | 263° |
| 2026-04-21 08:56 | 33.93761 | -118.40168 | 159 ft | 170 kts | 263° |
| 2026-04-21 08:56 | 33.93609 | -118.41622 | 762 ft | 173 kts | 262° |
| 2026-04-21 08:56 | 33.93464 | -118.43022 | 1608 ft | 168 kts | 263° |
| 2026-04-21 08:57 | 33.93327 | -118.44386 | 2467 ft | 161 kts | 263° |
| 2026-04-21 08:57 | 33.93197 | -118.45734 | 3163 ft | 165 kts | 263° |
| 2026-04-21 08:57 | 33.93061 | -118.47121 | 3717 ft | 171 kts | 261° |
| 2026-04-21 08:57 | 33.92916 | -118.48631 | 3983 ft | 193 kts | 263° |
| 2026-04-21 08:58 | 33.92786 | -118.50311 | 4333 ft | 209 kts | 263° |
| 2026-04-21 08:58 | 33.92639 | -118.52103 | 4735 ft | 223 kts | 262° |
| 2026-04-21 08:58 | 33.92465 | -118.54062 | 5006 ft | 249 kts | 262° |
| 2026-04-21 08:58 | 33.92289 | -118.56209 | 5558 ft | 261 kts | 262° |
| 2026-04-21 08:59 | 33.92114 | -118.58390 | 6389 ft | 263 kts | 262° |
| 2026-04-21 08:59 | 33.91950 | -118.60583 | 7184 ft | 264 kts | 262° |
| 2026-04-21 08:59 | 33.91787 | -118.62795 | 7973 ft | 268 kts | 263° |
| 2026-04-21 08:59 | 33.91775 | -118.65067 | 8678 ft | 273 kts | 266° |
| 2026-04-21 09:00 | 33.91774 | -118.67378 | 9446 ft | 276 kts | 265° |
| 2026-04-21 09:00 | 33.91766 | -118.69693 | 10221 ft | 281 kts | 264° |
| 2026-04-21 09:00 | 33.91747 | -118.72141 | 10428 ft | 304 kts | 264° |
| 2026-04-21 09:00 | 33.91723 | -118.74770 | 10694 ft | 323 kts | 265° |
| 2026-04-21 09:01 | 33.91710 | -118.77552 | 10942 ft | 342 kts | 265° |
| 2026-04-21 09:01 | 33.91702 | -118.80469 | 11422 ft | 350 kts | 265° |
| 2026-04-21 09:01 | 33.91705 | -118.83402 | 12184 ft | 351 kts | 266° |
| 2026-04-21 09:01 | 33.91784 | -118.86368 | 12831 ft | 357 kts | 267° |
| 2026-04-21 09:02 | 33.91870 | -118.89382 | 13424 ft | 364 kts | 267° |
| 2026-04-21 09:02 | 33.91965 | -118.92443 | 14031 ft | 369 kts | 267° |
| 2026-04-21 09:02 | 33.92065 | -118.95539 | 14672 ft | 371 kts | 267° |
| 2026-04-21 09:03 | 33.92779 | -119.01739 | 16030 ft | 383 kts | 282° |
| 2026-04-21 09:03 | 33.93831 | -119.04732 | 16599 ft | 395 kts | 293° |
| 2026-04-21 09:03 | 33.95281 | -119.07585 | 17171 ft | 402 kts | 296° |
| 2026-04-21 09:03 | 33.96265 | -119.09480 | 17555 ft | 404 kts | 296° |
| 2026-04-21 09:04 | 33.98266 | -119.13343 | 18337 ft | 409 kts | 296° |
| 2026-04-21 09:04 | 33.99787 | -119.16214 | 18850 ft | 415 kts | 300° |
| 2026-04-21 09:04 | 34.01672 | -119.18891 | 19398 ft | 423 kts | 310° |
| 2026-04-21 09:04 | 34.03951 | -119.21190 | 19914 ft | 432 kts | 320° |
| 2026-04-21 09:05 | 34.06410 | -119.23291 | 20449 ft | 434 kts | 320° |
| 2026-04-21 09:05 | 34.08076 | -119.24716 | 20810 ft | 435 kts | 320° |
| 2026-04-21 09:05 | 34.10510 | -119.26804 | 21342 ft | 436 kts | 319° |
| 2026-04-21 09:05 | 34.12991 | -119.28938 | 21858 ft | 438 kts | 319° |
| 2026-04-21 09:06 | 34.15475 | -119.31076 | 22356 ft | 440 kts | 319° |
| 2026-04-21 09:06 | 34.17967 | -119.33220 | 22848 ft | 442 kts | 319° |
| 2026-04-21 09:06 | 34.20474 | -119.35380 | 23335 ft | 443 kts | 319° |
| 2026-04-21 09:06 | 34.22993 | -119.37556 | 23755 ft | 446 kts | 319° |
| 2026-04-21 09:07 | 34.25524 | -119.39744 | 24118 ft | 449 kts | 319° |
| 2026-04-21 09:07 | 34.28065 | -119.41946 | 24505 ft | 451 kts | 319° |
| 2026-04-21 09:07 | 34.30618 | -119.44159 | 24886 ft | 453 kts | 319° |
| 2026-04-21 09:07 | 34.33185 | -119.46384 | 25264 ft | 455 kts | 319° |
| 2026-04-21 09:08 | 34.35763 | -119.48621 | 25648 ft | 457 kts | 319° |
| 2026-04-21 09:08 | 34.38352 | -119.50862 | 26010 ft | 459 kts | 319° |
| 2026-04-21 09:08 | 34.40921 | -119.53173 | 26359 ft | 458 kts | 314° |
| 2026-04-21 09:08 | 34.43228 | -119.55821 | 26716 ft | 456 kts | 308° |
| 2026-04-21 09:09 | 34.45456 | -119.58568 | 27068 ft | 458 kts | 308° |
| 2026-04-21 09:09 | 34.47688 | -119.61322 | 27432 ft | 460 kts | 308° |
| 2026-04-21 09:09 | 34.49938 | -119.64096 | 27788 ft | 462 kts | 308° |
| 2026-04-21 09:09 | 34.52193 | -119.66878 | 28147 ft | 464 kts | 308° |
| 2026-04-21 09:10 | 34.54459 | -119.69673 | 28514 ft | 466 kts | 308° |
| 2026-04-21 09:10 | 34.56743 | -119.72484 | 28881 ft | 468 kts | 308° |
| 2026-04-21 09:10 | 34.59029 | -119.75298 | 29294 ft | 468 kts | 308° |
| 2026-04-21 09:10 | 34.61304 | -119.78101 | 29790 ft | 466 kts | 308° |
| 2026-04-21 09:11 | 34.63572 | -119.80902 | 30254 ft | 464 kts | 308° |
| 2026-04-21 09:11 | 34.65828 | -119.83688 | 30680 ft | 463 kts | 308° |
| 2026-04-21 09:11 | 34.68087 | -119.86485 | 30989 ft | 463 kts | 308° |
| 2026-04-21 09:11 | 34.70329 | -119.89262 | 31066 ft | 457 kts | 308° |
| 2026-04-21 09:12 | 34.74704 | -119.94688 | 31079 ft | 450 kts | 307° |
| 2026-04-21 09:12 | 34.79114 | -120.00178 | 31075 ft | 450 kts | 307° |
| 2026-04-21 09:13 | 34.83489 | -120.05634 | 31069 ft | 450 kts | 307° |
| 2026-04-21 09:13 | 34.87866 | -120.11094 | 31066 ft | 450 kts | 307° |
| 2026-04-21 09:14 | 34.92237 | -120.16557 | 31081 ft | 450 kts | 307° |
| 2026-04-21 09:14 | 34.96601 | -120.22014 | 31066 ft | 450 kts | 307° |
| 2026-04-21 09:15 | 35.00970 | -120.27480 | 31063 ft | 449 kts | 307° |
| 2026-04-21 09:15 | 35.05321 | -120.32944 | 31050 ft | 449 kts | 307° |
| 2026-04-21 09:16 | 35.09691 | -120.38412 | 31044 ft | 451 kts | 308° |
| 2026-04-21 09:16 | 35.14290 | -120.43677 | 31066 ft | 455 kts | 310° |
| 2026-04-21 09:17 | 35.19017 | -120.48811 | 31035 ft | 454 kts | 311° |
| 2026-04-21 09:17 | 35.23678 | -120.53936 | 31048 ft | 453 kts | 309° |
| 2026-04-21 09:18 | 35.28316 | -120.59159 | 31033 ft | 454 kts | 309° |
| 2026-04-21 09:18 | 35.32959 | -120.64421 | 31024 ft | 454 kts | 309° |
| 2026-04-21 09:19 | 35.37609 | -120.69676 | 31020 ft | 455 kts | 309° |
| 2026-04-21 09:19 | 35.42265 | -120.74932 | 31014 ft | 455 kts | 309° |
| 2026-04-21 09:20 | 35.46931 | -120.80200 | 31022 ft | 457 kts | 309° |
| 2026-04-21 09:20 | 35.51922 | -120.85139 | 31026 ft | 464 kts | 315° |
| 2026-04-21 09:21 | 35.57045 | -120.89886 | 31052 ft | 464 kts | 315° |
| 2026-04-21 09:21 | 35.62204 | -120.94663 | 31034 ft | 465 kts | 315° |
| 2026-04-21 09:22 | 35.67404 | -120.99501 | 31033 ft | 466 kts | 314° |
| 2026-04-21 09:22 | 35.72536 | -121.04291 | 31027 ft | 466 kts | 314° |
| 2026-04-21 09:23 | 35.77700 | -121.09121 | 31023 ft | 467 kts | 314° |
| 2026-04-21 09:23 | 35.82881 | -121.13957 | 31014 ft | 467 kts | 314° |
| 2026-04-21 09:24 | 35.88065 | -121.18791 | 31014 ft | 467 kts | 314° |
| 2026-04-21 09:24 | 35.93241 | -121.23646 | 31016 ft | 468 kts | 314° |
| 2026-04-21 09:25 | 35.98417 | -121.28536 | 31022 ft | 469 kts | 314° |
| 2026-04-21 09:25 | 36.03606 | -121.33433 | 31001 ft | 470 kts | 314° |
| 2026-04-21 09:26 | 36.06211 | -121.35885 | 30771 ft | 471 kts | 314° |
| 2026-04-21 09:26 | 36.08961 | -121.38134 | 30554 ft | 478 kts | 319° |
| 2026-04-21 09:26 | 36.11781 | -121.40319 | 30315 ft | 479 kts | 319° |
| 2026-04-21 09:26 | 36.14608 | -121.42513 | 30071 ft | 479 kts | 319° |
| 2026-04-21 09:27 | 36.17421 | -121.44700 | 29509 ft | 475 kts | 319° |
| 2026-04-21 09:27 | 36.20202 | -121.46864 | 28931 ft | 471 kts | 319° |
| 2026-04-21 09:27 | 36.22966 | -121.49019 | 28322 ft | 468 kts | 319° |
| 2026-04-21 09:27 | 36.25710 | -121.51165 | 27707 ft | 465 kts | 319° |
| 2026-04-21 09:28 | 36.28442 | -121.53309 | 27082 ft | 463 kts | 317° |
| 2026-04-21 09:28 | 36.31161 | -121.55453 | 26416 ft | 464 kts | 318° |
| 2026-04-21 09:28 | 36.33884 | -121.57611 | 25762 ft | 466 kts | 318° |
| 2026-04-21 09:28 | 36.36616 | -121.59765 | 25101 ft | 465 kts | 318° |
| 2026-04-21 09:29 | 36.39353 | -121.61914 | 24439 ft | 465 kts | 318° |
| 2026-04-21 09:29 | 36.42079 | -121.64057 | 23805 ft | 465 kts | 318° |
| 2026-04-21 09:29 | 36.44784 | -121.66168 | 23577 ft | 451 kts | 318° |
| 2026-04-21 09:29 | 36.47415 | -121.68215 | 23259 ft | 442 kts | 318° |
| 2026-04-21 09:30 | 36.49999 | -121.70237 | 22914 ft | 436 kts | 318° |
| 2026-04-21 09:30 | 36.52548 | -121.72247 | 22589 ft | 434 kts | 318° |
| 2026-04-21 09:30 | 36.55094 | -121.74272 | 22007 ft | 434 kts | 317° |
| 2026-04-21 09:30 | 36.57632 | -121.76294 | 21497 ft | 432 kts | 318° |
| 2026-04-21 09:31 | 36.60155 | -121.78302 | 20908 ft | 430 kts | 319° |
| 2026-04-21 09:31 | 36.62668 | -121.80297 | 20535 ft | 426 kts | 319° |
| 2026-04-21 09:31 | 36.65168 | -121.82281 | 19959 ft | 426 kts | 319° |
| 2026-04-21 09:31 | 36.67667 | -121.84264 | 19453 ft | 424 kts | 320° |
| 2026-04-21 09:32 | 36.70150 | -121.86233 | 18973 ft | 422 kts | 320° |
| 2026-04-21 09:32 | 36.72633 | -121.88156 | 18341 ft | 420 kts | 326° |
| 2026-04-21 09:32 | 36.75314 | -121.89627 | 17539 ft | 422 kts | 338° |
| 2026-04-21 09:32 | 36.78157 | -121.90529 | 16950 ft | 421 kts | 345° |
| 2026-04-21 09:33 | 36.81004 | -121.91305 | 16493 ft | 417 kts | 345° |
| 2026-04-21 09:33 | 36.83814 | -121.92086 | 15792 ft | 411 kts | 345° |
| 2026-04-21 09:33 | 36.86581 | -121.92865 | 15136 ft | 404 kts | 345° |
| 2026-04-21 09:33 | 36.89302 | -121.93632 | 14580 ft | 398 kts | 345° |
| 2026-04-21 09:34 | 36.91994 | -121.94390 | 14053 ft | 396 kts | 345° |
| 2026-04-21 09:34 | 36.94637 | -121.95134 | 13583 ft | 393 kts | 345° |
| 2026-04-21 09:34 | 36.97280 | -121.95975 | 12969 ft | 393 kts | 342° |
| 2026-04-21 09:34 | 36.99877 | -121.96944 | 12542 ft | 387 kts | 340° |
| 2026-04-21 09:35 | 37.02429 | -121.97971 | 11981 ft | 385 kts | 339° |
| 2026-04-21 09:35 | 37.04948 | -121.99012 | 11618 ft | 379 kts | 339° |
| 2026-04-21 09:35 | 37.07432 | -122.00036 | 10942 ft | 374 kts | 339° |
| 2026-04-21 09:35 | 37.09887 | -122.01027 | 10382 ft | 368 kts | 339° |
| 2026-04-21 09:36 | 37.12278 | -122.01973 | 10202 ft | 348 kts | 339° |
| 2026-04-21 09:36 | 37.14542 | -122.02858 | 9935 ft | 335 kts | 339° |
| 2026-04-21 09:36 | 37.16732 | -122.03710 | 9795 ft | 328 kts | 339° |
| 2026-04-21 09:36 | 37.18894 | -122.04550 | 9660 ft | 322 kts | 340° |
| 2026-04-21 09:37 | 37.21016 | -122.05376 | 9439 ft | 317 kts | 339° |
| 2026-04-21 09:37 | 37.23115 | -122.06199 | 9135 ft | 315 kts | 339° |
| 2026-04-21 09:37 | 37.25199 | -122.07019 | 8868 ft | 313 kts | 339° |
| 2026-04-21 09:37 | 37.27277 | -122.07837 | 8505 ft | 312 kts | 336° |
| 2026-04-21 09:38 | 37.29345 | -122.08661 | 8043 ft | 309 kts | 336° |
| 2026-04-21 09:38 | 37.31385 | -122.09464 | 7512 ft | 306 kts | 338° |
| 2026-04-21 09:38 | 37.33402 | -122.10248 | 7116 ft | 301 kts | 338° |
| 2026-04-21 09:38 | 37.35384 | -122.11025 | 6684 ft | 296 kts | 338° |
| 2026-04-21 09:39 | 37.37370 | -122.11812 | 6003 ft | 300 kts | 338° |
| 2026-04-21 09:39 | 37.39334 | -122.12546 | 5649 ft | 288 kts | 340° |
| 2026-04-21 09:39 | 37.41229 | -122.13198 | 5321 ft | 277 kts | 341° |
| 2026-04-21 09:39 | 37.43051 | -122.13806 | 5000 ft | 266 kts | 341° |
| 2026-04-21 09:40 | 37.44802 | -122.14390 | 4686 ft | 255 kts | 341° |
| 2026-04-21 09:40 | 37.46491 | -122.14949 | 4381 ft | 249 kts | 341° |
| 2026-04-21 09:40 | 37.48157 | -122.15496 | 4080 ft | 246 kts | 342° |
| 2026-04-21 09:40 | 37.49822 | -122.16045 | 3782 ft | 245 kts | 342° |
| 2026-04-21 09:41 | 37.51431 | -122.16572 | 3508 ft | 235 kts | 342° |
| 2026-04-21 09:41 | 37.52923 | -122.17282 | 3322 ft | 224 kts | 325° |
| 2026-04-21 09:41 | 37.54031 | -122.18498 | 3131 ft | 202 kts | 304° |
| 2026-04-21 09:41 | 37.54728 | -122.19971 | 2873 ft | 192 kts | 294° |
| 2026-04-21 09:42 | 37.55339 | -122.21422 | 2617 ft | 189 kts | 294° |
| 2026-04-21 09:42 | 37.55952 | -122.22880 | 2369 ft | 188 kts | 294° |
| 2026-04-21 09:42 | 37.56563 | -122.24329 | 2114 ft | 187 kts | 295° |
| 2026-04-21 09:42 | 37.57172 | -122.25774 | 1855 ft | 184 kts | 295° |
| 2026-04-21 09:43 | 37.57746 | -122.27134 | 1632 ft | 168 kts | 295° |
| 2026-04-21 09:43 | 37.58266 | -122.28369 | 1408 ft | 154 kts | 295° |
| 2026-04-21 09:43 | 37.58760 | -122.29543 | 1194 ft | 150 kts | 295° |
| 2026-04-21 09:43 | 37.59245 | -122.30696 | 983 ft | 148 kts | 296° |
| 2026-04-21 09:44 | 37.59725 | -122.31837 | 769 ft | 147 kts | 296° |
| 2026-04-21 09:44 | 37.60201 | -122.32977 | 572 ft | 147 kts | 296° |
| 2026-04-21 09:44 | 37.60673 | -122.34117 | 385 ft | 147 kts | 296° |
| 2026-04-21 09:44 | 37.61153 | -122.35248 | 197 ft | 146 kts | 297° |
| 2026-04-21 09:45 | 37.61624 | -122.36371 | 36 ft | 136 kts | 296° |
| 2026-04-21 09:45 | 37.62011 | -122.37285 | 19 ft | 87 kts | 298° |
| 2026-04-21 09:45 | 37.62210 | -122.37757 | 20 ft | 47 kts | 298° |
| 2026-04-21 09:45 | 37.62330 | -122.38040 | 22 ft | 25 kts | 297° |
| 2026-04-21 09:46 | 37.62334 | -122.38182 | 22 ft | 14 kts | 248° |
| 2026-04-21 09:46 | 37.62272 | -122.38266 | 23 ft | 13 kts | 207° |
| 2026-04-21 09:46 | 37.62182 | -122.38300 | 21 ft | 16 kts | 196° |
| 2026-04-21 09:46 | 37.62081 | -122.38339 | 23 ft | 14 kts | 197° |
| 2026-04-21 09:47 | 37.62013 | -122.38300 | 24 ft | 10 kts | 115° |
| 2026-04-21 09:47 | 37.61980 | -122.38230 | 23 ft | 8 kts | 121° |
| 2026-04-21 09:47 | 37.61954 | -122.38172 | 23 ft | 8 kts | 119° |
| 2026-04-21 09:47 | 37.61922 | -122.38097 | 22 ft | 11 kts | 118° |
| 2026-04-21 09:48 | 37.61885 | -122.38027 | 22 ft | 8 kts | 132° |
| 2026-04-21 09:48 | 37.61821 | -122.37969 | 21 ft | 15 kts | 154° |
| 2026-04-21 09:48 | 37.61712 | -122.37951 | 19 ft | 16 kts | 186° |
| 2026-04-21 09:48 | 37.61614 | -122.37996 | 16 ft | 15 kts | 206° |
| 2026-04-21 09:49 | 37.61564 | -122.38045 | 14 ft | 13 kts | 242° |
| 2026-04-21 09:49 | 37.61579 | -122.38135 | 15 ft | 9 kts | 295° |
| 2026-04-21 09:49 | 37.61600 | -122.38187 | 16 ft | 5 kts | 294° |
| 2026-04-21 09:49 | 37.61599 | -122.38214 | 16 ft | 2 kts | 251° |
| 2026-04-21 09:50 | 37.61594 | -122.38223 | 16 ft | 3 kts | 236° |
| 2026-04-21 09:50 | 37.61569 | -122.38253 | 16 ft | 2 kts | 223° |
| 2026-04-21 09:50 | 37.61564 | -122.38259 | 16 ft | 1 kts | 223° |
| 2026-04-21 09:50 | 37.61557 | -122.38267 | 16 ft | 0 kts | 224° |
| 2026-04-21 09:51 | 37.61554 | -122.38271 | 16 ft | 0 kts | 224° |